Time;durP1;ratioP1;P1;durP2;ratioP2;P2;SDS_P1;SDS_P2;PMS_P1;PMS_P2;Temp;Humidity;BMP_temperature;BMP_pressure;BME280_temperature;BME280_humidity;BME280_pressure;Samples;Min_cycle;Max_cycle;Signal;HPM_P1;HPM_P2
2022/10/27 00:00:34;;;;;;;11.57;5.67;;;;;;;;;;5055879;28;20373;-66
2022/10/27 00:03:00;;;;;;;9.63;5.00;;;;;;;;;;5076053;22;21389;-69
2022/10/27 00:05:26;;;;;;;9.97;5.30;;;;;;;;;;5076574;28;20192;-70
2022/10/27 00:07:52;;;;;;;13.37;5.63;;;;;;;;;;5078586;28;20209;-69
2022/10/27 00:10:18;;;;;;;12.77;5.50;;;;;;;;;;5080084;28;20638;-69
2022/10/27 00:12:44;;;;;;;8.30;4.67;;;;;;;;;;5077600;28;20182;-69
2022/10/27 00:15:10;;;;;;;9.57;5.27;;;;;;;;;;5079189;28;20188;-69
2022/10/27 00:17:37;;;;;;;16.33;5.73;;;;;;;;;;5075329;28;20631;-68
2022/10/27 00:20:03;;;;;;;11.70;5.17;;;;;;;;;;5074766;28;20201;-69
2022/10/27 00:22:29;;;;;;;11.07;4.20;;;;;;;;;;5074580;28;20650;-68
2022/10/27 00:24:55;;;;;;;9.63;4.73;;;;;;;;;;5073437;28;20277;-69
2022/10/27 00:27:21;;;;;;;8.13;4.80;;;;;;;;;;5073544;28;20232;-68
2022/10/27 00:29:47;;;;;;;9.83;5.20;;;;;;;;;;5073381;28;20186;-70
2022/10/27 00:32:13;;;;;;;12.07;4.93;;;;;;;;;;5073527;28;20612;-70
2022/10/27 00:34:39;;;;;;;8.03;4.43;;;;;;;;;;5074627;28;20205;-69
2022/10/27 00:37:05;;;;;;;5.47;4.03;;;;;;;;;;5073295;28;20186;-70
2022/10/27 00:39:31;;;;;;;6.57;4.57;;;;;;;;;;5074654;28;20197;-70
2022/10/27 00:41:57;;;;;;;7.70;4.60;;;;;;;;;;5074720;28;20258;-69
2022/10/27 00:44:26;;;;;;;6.27;4.10;;;;;;;;;;5074442;28;20277;-70
2022/10/27 00:46:52;;;;;;;13.57;4.80;;;;;;;;;;5072441;28;20177;-69
2022/10/27 00:49:22;;;;;;;6.13;4.27;;;;;;;;;;5073055;28;20529;-69
2022/10/27 00:52:09;;;;;;;9.87;4.77;;;;;;;;;;5074563;28;20239;-70
2022/10/27 00:54:38;;;;;;;9.23;4.50;;;;;;;;;;5072997;28;20693;-69
2022/10/27 00:57:04;;;;;;;7.90;4.30;;;;;;;;;;5074499;28;20710;-69
2022/10/27 00:59:30;;;;;;;8.27;4.40;;;;;;;;;;5074111;28;20205;-70
2022/10/27 01:01:56;;;;;;;10.87;4.30;;;;;;;;;;5074106;28;20174;-69
2022/10/27 01:04:27;;;;;;;5.97;4.77;;;;;;;;;;5073958;28;20800;-69
2022/10/27 01:06:53;;;;;;;9.90;4.00;;;;;;;;;;5074087;28;20163;-68
2022/10/27 01:09:19;;;;;;;8.87;4.73;;;;;;;;;;5074160;28;20181;-69
2022/10/27 01:11:45;;;;;;;10.00;4.33;;;;;;;;;;5073264;28;20181;-69
2022/10/27 01:14:11;;;;;;;12.00;4.87;;;;;;;;;;5073220;28;20292;-68
2022/10/27 01:16:45;;;;;;;7.63;4.47;;;;;;;;;;5075242;28;20209;-69
2022/10/27 01:19:11;;;;;;;11.17;4.57;;;;;;;;;;5074757;28;20193;-69
2022/10/27 01:21:54;;;;;;;13.57;4.80;;;;;;;;;;5073382;28;20191;-70
2022/10/27 01:24:38;;;;;;;8.13;4.10;;;;;;;;;;5073519;28;20251;-69
2022/10/27 01:27:07;;;;;;;11.70;4.63;;;;;;;;;;5074504;28;20196;-69
2022/10/27 01:29:50;;;;;;;12.13;4.80;;;;;;;;;;5073202;28;20592;-68
2022/10/27 01:32:27;;;;;;;13.40;5.13;;;;;;;;;;5074526;28;20170;-69
2022/10/27 01:35:00;;;;;;;12.20;4.60;;;;;;;;;;5074072;28;20233;-70
2022/10/27 01:37:38;;;;;;;9.03;4.73;;;;;;;;;;5073813;28;20192;-68
2022/10/27 01:40:22;;;;;;;9.23;4.90;;;;;;;;;;5073906;28;20204;-70
2022/10/27 01:42:49;;;;;;;11.03;4.10;;;;;;;;;;5073617;28;20157;-69
2022/10/27 01:45:17;;;;;;;10.67;4.40;;;;;;;;;;5073494;28;20546;-70
2022/10/27 01:47:43;;;;;;;6.60;4.50;;;;;;;;;;5073598;28;20177;-70
2022/10/27 01:50:09;;;;;;;8.93;5.07;;;;;;;;;;5072482;28;20185;-69
2022/10/27 01:52:44;;;;;;;10.97;4.80;;;;;;;;;;5072446;28;20231;-70
2022/10/27 01:55:13;;;;;;;8.77;3.90;;;;;;;;;;5072389;28;20248;-70
2022/10/27 01:57:51;;;;;;;11.20;4.43;;;;;;;;;;5074989;28;20182;-69
2022/10/27 02:00:18;;;;;;;8.97;4.93;;;;;;;;;;5076290;28;20672;-70
2022/10/27 02:02:47;;;;;;;12.00;4.17;;;;;;;;;;5076011;28;20181;-69
2022/10/27 02:05:13;;;;;;;11.53;4.30;;;;;;;;;;5076418;28;20182;-69
2022/10/27 02:07:50;;;;;;;7.70;4.47;;;;;;;;;;5076266;28;20289;-69
2022/10/27 02:10:18;;;;;;;8.03;4.47;;;;;;;;;;5077907;28;20516;-69
2022/10/27 02:12:45;;;;;;;7.07;4.23;;;;;;;;;;5077501;28;20694;-70
2022/10/27 02:15:20;;;;;;;8.43;4.40;;;;;;;;;;5077136;28;20559;-69
2022/10/27 02:17:47;;;;;;;9.03;4.20;;;;;;;;;;5077581;28;20173;-69
2022/10/27 02:20:17;;;;;;;10.03;4.13;;;;;;;;;;5077069;28;20197;-69
2022/10/27 02:22:44;;;;;;;7.63;4.20;;;;;;;;;;5076987;28;20170;-70
2022/10/27 02:25:10;;;;;;;6.53;4.30;;;;;;;;;;5075820;28;20178;-69
2022/10/27 02:27:56;;;;;;;9.57;4.57;;;;;;;;;;5076159;28;20520;-69
2022/10/27 02:30:22;;;;;;;10.93;4.90;;;;;;;;;;5092800;28;20184;-69
2022/10/27 02:32:48;;;;;;;9.63;4.47;;;;;;;;;;5091062;28;20173;-68
2022/10/27 02:35:15;;;;;;;9.50;4.37;;;;;;;;;;5091720;28;20189;-69
2022/10/27 02:37:42;;;;;;;9.63;4.67;;;;;;;;;;5084859;28;20186;-69
2022/10/27 02:40:08;;;;;;;7.97;4.60;;;;;;;;;;5075419;28;20202;-70
2022/10/27 02:42:34;;;;;;;11.77;4.60;;;;;;;;;;5075531;28;20561;-69
2022/10/27 02:45:00;;;;;;;11.47;4.53;;;;;;;;;;5077439;28;20630;-68
2022/10/27 02:47:26;;;;;;;7.90;5.00;;;;;;;;;;5077281;28;20197;-69
2022/10/27 02:49:52;;;;;;;8.73;5.37;;;;;;;;;;5077577;28;20203;-69
2022/10/27 02:52:18;;;;;;;11.87;5.00;;;;;;;;;;5077169;28;20316;-69
2022/10/27 02:54:47;;;;;;;8.40;4.50;;;;;;;;;;5076894;28;20237;-69
2022/10/27 02:57:16;;;;;;;9.33;5.10;;;;;;;;;;5077281;28;20219;-68
2022/10/27 02:59:42;;;;;;;6.10;5.17;;;;;;;;;;5076402;28;20283;-69
2022/10/27 03:02:08;;;;;;;12.23;5.13;;;;;;;;;;5075323;28;20181;-70
2022/10/27 03:04:34;;;;;;;9.47;4.73;;;;;;;;;;5075003;28;20213;-69
2022/10/27 03:07:00;;;;;;;13.20;5.00;;;;;;;;;;5075032;28;20638;-70
2022/10/27 03:09:26;;;;;;;8.07;4.57;;;;;;;;;;5076145;28;20178;-69
2022/10/27 03:11:52;;;;;;;8.83;4.47;;;;;;;;;;5076415;28;20188;-69
2022/10/27 03:14:18;;;;;;;8.90;4.77;;;;;;;;;;5076576;28;20213;-69
2022/10/27 03:16:44;;;;;;;9.33;4.27;;;;;;;;;;5075084;28;20217;-69
2022/10/27 03:19:10;;;;;;;6.77;4.40;;;;;;;;;;5074838;28;20201;-70
2022/10/27 03:21:36;;;;;;;12.87;4.17;;;;;;;;;;5076416;28;20185;-70
2022/10/27 03:24:02;;;;;;;6.63;3.90;;;;;;;;;;5075101;28;20198;-70
2022/10/27 03:26:28;;;;;;;9.13;4.23;;;;;;;;;;5074977;28;20239;-69
2022/10/27 03:28:54;;;;;;;7.57;4.53;;;;;;;;;;5074524;28;20180;-70
2022/10/27 03:31:19;;;;;;;6.27;4.17;;;;;;;;;;5076019;28;20174;-69
2022/10/27 03:33:45;;;;;;;9.57;4.00;;;;;;;;;;5074641;28;20229;-69
2022/10/27 03:36:12;;;;;;;8.93;4.80;;;;;;;;;;5074698;28;20178;-70
2022/10/27 03:38:39;;;;;;;8.57;4.33;;;;;;;;;;5074572;28;20181;-69
2022/10/27 03:41:05;;;;;;;10.60;4.40;;;;;;;;;;5074524;28;20259;-69
2022/10/27 03:43:31;;;;;;;7.60;4.30;;;;;;;;;;5074507;28;20202;-70
2022/10/27 03:45:56;;;;;;;9.30;4.63;;;;;;;;;;5074258;28;20178;-69
2022/10/27 03:48:22;;;;;;;13.17;4.90;;;;;;;;;;5074316;28;20208;-69
2022/10/27 03:50:49;;;;;;;10.87;4.63;;;;;;;;;;5075643;28;20184;-70
2022/10/27 03:53:16;;;;;;;12.20;4.73;;;;;;;;;;5075347;28;20201;-69
2022/10/27 03:55:42;;;;;;;10.60;4.80;;;;;;;;;;5075267;28;20594;-69
2022/10/27 03:58:11;;;;;;;7.87;4.27;;;;;;;;;;5073855;28;20182;-69
2022/10/27 04:00:37;;;;;;;10.70;4.93;;;;;;;;;;5073667;28;20202;-69
2022/10/27 04:03:03;;;;;;;7.87;4.30;;;;;;;;;;5075202;28;20288;-69
2022/10/27 04:05:29;;;;;;;9.67;4.57;;;;;;;;;;5075258;28;20202;-69
2022/10/27 04:07:55;;;;;;;8.47;4.70;;;;;;;;;;5075003;28;20184;-70
2022/10/27 04:10:21;;;;;;;6.93;4.50;;;;;;;;;;5074824;28;20188;-70
2022/10/27 04:12:51;;;;;;;8.17;4.07;;;;;;;;;;5073539;28;20276;-69
2022/10/27 04:15:17;;;;;;;9.13;5.20;;;;;;;;;;5073403;28;20208;-69
2022/10/27 04:17:43;;;;;;;8.83;4.70;;;;;;;;;;5073639;28;20192;-69
2022/10/27 04:20:09;;;;;;;15.93;4.60;;;;;;;;;;5072676;28;20197;-69
2022/10/27 04:22:35;;;;;;;7.70;4.60;;;;;;;;;;5074747;28;20177;-69
2022/10/27 04:25:01;;;;;;;7.50;4.50;;;;;;;;;;5074791;28;20196;-70
2022/10/27 04:27:27;;;;;;;6.30;4.33;;;;;;;;;;5073385;28;20178;-69
2022/10/27 04:29:53;;;;;;;7.10;4.50;;;;;;;;;;5075045;28;20177;-69
2022/10/27 04:32:19;;;;;;;6.60;4.23;;;;;;;;;;5074471;28;20646;-69
2022/10/27 04:34:45;;;;;;;8.63;4.30;;;;;;;;;;5074193;28;20673;-69
2022/10/27 04:37:11;;;;;;;9.03;4.30;;;;;;;;;;5074239;28;20593;-69
2022/10/27 04:39:37;;;;;;;8.90;4.53;;;;;;;;;;5074264;28;20220;-70
2022/10/27 04:42:03;;;;;;;9.63;4.10;;;;;;;;;;5074353;28;20262;-69
2022/10/27 04:44:28;;;;;;;11.40;4.87;;;;;;;;;;5074306;28;20206;-69
2022/10/27 04:46:54;;;;;;;10.83;4.60;;;;;;;;;;5074179;28;20177;-69
2022/10/27 04:49:20;;;;;;;11.93;4.20;;;;;;;;;;5074066;28;20252;-68
2022/10/27 04:51:46;;;;;;;6.83;3.93;;;;;;;;;;5072665;28;20180;-69
2022/10/27 04:54:12;;;;;;;8.57;3.90;;;;;;;;;;5074113;28;20250;-69
2022/10/27 04:56:38;;;;;;;9.83;4.43;;;;;;;;;;5072703;28;20186;-69
2022/10/27 04:59:04;;;;;;;6.47;3.67;;;;;;;;;;5074012;28;20206;-70
2022/10/27 05:01:30;;;;;;;4.53;3.60;;;;;;;;;;5074609;28;20256;-70
2022/10/27 05:03:56;;;;;;;6.23;3.57;;;;;;;;;;5073758;28;20210;-69
2022/10/27 05:06:22;;;;;;;8.53;4.00;;;;;;;;;;5074006;28;20173;-69
2022/10/27 05:08:48;;;;;;;10.80;4.37;;;;;;;;;;5073832;28;20219;-69
2022/10/27 05:11:14;;;;;;;8.33;5.10;;;;;;;;;;5073881;28;20170;-69
2022/10/27 05:13:40;;;;;;;11.20;5.10;;;;;;;;;;5073905;28;20190;-70
2022/10/27 05:16:06;;;;;;;9.87;5.10;;;;;;;;;;5073917;28;20248;-69
2022/10/27 05:18:32;;;;;;;10.50;3.97;;;;;;;;;;5072482;28;20181;-72
2022/10/27 05:20:58;;;;;;;8.43;5.60;;;;;;;;;;5072289;28;20201;-71
2022/10/27 05:23:24;;;;;;;13.63;5.00;;;;;;;;;;5073685;28;20193;-70
2022/10/27 05:25:51;;;;;;;10.87;4.37;;;;;;;;;;5072578;28;20186;-69
2022/10/27 05:28:16;;;;;;;6.63;4.67;;;;;;;;;;5073578;28;20223;-69
2022/10/27 05:30:42;;;;;;;12.07;5.57;;;;;;;;;;5074227;28;20636;-70
2022/10/27 05:33:08;;;;;;;11.20;5.53;;;;;;;;;;5073826;28;20654;-68
2022/10/27 05:35:34;;;;;;;7.97;5.03;;;;;;;;;;5073629;28;20188;-68
2022/10/27 05:38:00;;;;;;;10.87;5.20;;;;;;;;;;5073592;28;20204;-70
2022/10/27 05:40:33;;;;;;;9.40;5.03;;;;;;;;;;5072422;28;20296;-70
2022/10/27 05:42:58;;;;;;;11.87;4.40;;;;;;;;;;5073760;28;20189;-69
2022/10/27 05:45:25;;;;;;;10.00;4.33;;;;;;;;;;5072205;28;20548;-71
2022/10/27 05:48:02;;;;;;;9.60;4.87;;;;;;;;;;5072082;28;20184;-68
2022/10/27 05:50:28;;;;;;;10.80;5.23;;;;;;;;;;5073646;28;20295;-69
2022/10/27 05:52:54;;;;;;;11.87;5.00;;;;;;;;;;5072010;28;20208;-69
2022/10/27 05:55:20;;;;;;;10.00;4.70;;;;;;;;;;5072145;28;20278;-70
2022/10/27 05:57:56;;;;;;;12.20;4.73;;;;;;;;;;5071985;28;20192;-70
2022/10/27 06:00:23;;;;;;;12.03;5.73;;;;;;;;;;5072018;28;20271;-70
2022/10/27 06:02:49;;;;;;;12.63;4.77;;;;;;;;;;5072124;28;20209;-70
2022/10/27 06:05:15;;;;;;;15.83;5.60;;;;;;;;;;5071864;28;20178;-70
2022/10/27 06:07:41;;;;;;;13.03;4.70;;;;;;;;;;5071963;28;20599;-70
2022/10/27 06:10:08;;;;;;;17.10;4.47;;;;;;;;;;5073273;28;20193;-69
2022/10/27 06:12:34;;;;;;;18.37;5.47;;;;;;;;;;5073162;28;20204;-68
2022/10/27 06:14:59;;;;;;;30.60;5.97;;;;;;;;;;5071948;28;20182;-69
2022/10/27 06:17:25;;;;;;;15.53;4.73;;;;;;;;;;5072468;28;20177;-69
2022/10/27 06:19:51;;;;;;;15.97;4.87;;;;;;;;;;5072850;28;20255;-69
2022/10/27 06:22:17;;;;;;;14.27;5.20;;;;;;;;;;5072612;28;20218;-69
2022/10/27 06:24:43;;;;;;;8.43;4.60;;;;;;;;;;5073417;28;20201;-71
2022/10/27 06:27:09;;;;;;;6.27;3.40;;;;;;;;;;5073031;28;20174;-69
2022/10/27 06:29:35;;;;;;;6.23;4.03;;;;;;;;;;5071725;28;20186;-70
2022/10/27 06:32:01;;;;;;;5.40;3.93;;;;;;;;;;5073149;28;20182;-69
2022/10/27 06:34:27;;;;;;;10.73;3.80;;;;;;;;;;5071797;28;20205;-70
2022/10/27 06:36:53;;;;;;;9.00;3.10;;;;;;;;;;5073047;28;20182;-70
2022/10/27 06:39:19;;;;;;;6.37;3.00;;;;;;;;;;5072943;28;20212;-69
2022/10/27 06:41:45;;;;;;;8.30;3.17;;;;;;;;;;5072948;28;20178;-69
2022/10/27 06:44:11;;;;;;;6.83;2.60;;;;;;;;;;5074162;28;20572;-71
2022/10/27 06:46:38;;;;;;;11.10;2.50;;;;;;;;;;5077243;28;20181;-69
2022/10/27 06:49:04;;;;;;;9.13;4.63;;;;;;;;;;5076654;28;20170;-70
2022/10/27 06:51:30;;;;;;;8.63;2.70;;;;;;;;;;5075809;28;20236;-70
2022/10/27 06:53:56;;;;;;;8.67;2.60;;;;;;;;;;5076969;28;20197;-69
2022/10/27 06:56:22;;;;;;;7.70;2.90;;;;;;;;;;5075428;28;20174;-71
2022/10/27 06:58:48;;;;;;;6.43;2.80;;;;;;;;;;5075688;28;20227;-68
2022/10/27 07:01:14;;;;;;;4.33;2.70;;;;;;;;;;5075538;28;20235;-69
2022/10/27 07:03:41;;;;;;;8.63;2.80;;;;;;;;;;5074523;28;20307;-69
2022/10/27 07:06:07;;;;;;;4.70;2.40;;;;;;;;;;5076027;28;20170;-69
2022/10/27 07:08:33;;;;;;;7.53;2.70;;;;;;;;;;5074574;28;20188;-69
2022/10/27 07:10:59;;;;;;;7.23;2.50;;;;;;;;;;5075876;28;20182;-73
2022/10/27 07:13:25;;;;;;;6.60;2.50;;;;;;;;;;5075619;28;20205;-69
2022/10/27 07:15:51;;;;;;;6.77;3.43;;;;;;;;;;5075685;28;20174;-69
2022/10/27 07:18:17;;;;;;;15.33;5.03;;;;;;;;;;5075856;28;20230;-69
2022/10/27 07:20:44;;;;;;;14.17;3.43;;;;;;;;;;5075438;28;20304;-68
2022/10/27 07:23:11;;;;;;;8.13;2.97;;;;;;;;;;5075745;28;20228;-68
2022/10/27 07:25:37;;;;;;;7.07;2.60;;;;;;;;;;5074459;28;20174;-69
2022/10/27 07:28:05;;;;;;;7.13;3.07;;;;;;;;;;5074273;28;20178;-69
2022/10/27 07:30:39;;;;;;;4.13;2.73;;;;;;;;;;5074323;28;20273;-69
2022/10/27 07:33:06;;;;;;;6.17;2.60;;;;;;;;;;5074363;28;20201;-69
2022/10/27 07:35:32;;;;;;;7.37;2.47;;;;;;;;;;5074163;28;20209;-69
2022/10/27 07:37:58;;;;;;;5.47;2.23;;;;;;;;;;5075403;28;20189;-69
2022/10/27 07:40:24;;;;;;;11.80;3.00;;;;;;;;;;5074193;28;20205;-70
2022/10/27 07:42:51;;;;;;;5.23;2.53;;;;;;;;;;5075686;28;20181;-69
2022/10/27 07:45:18;;;;;;;8.00;2.53;;;;;;;;;;5074419;28;20178;-70
2022/10/27 07:47:45;;;;;;;6.73;4.30;;;;;;;;;;5073917;28;20315;-70
2022/10/27 07:50:11;;;;;;;6.73;3.00;;;;;;;;;;5074707;28;20190;-69
2022/10/27 07:52:41;;;;;;;4.23;2.27;;;;;;;;;;5075222;28;20178;-69
2022/10/27 07:55:07;;;;;;;6.97;2.30;;;;;;;;;;5073950;28;20261;-69
2022/10/27 07:57:33;;;;;;;3.57;2.03;;;;;;;;;;5073717;28;20217;-70
2022/10/27 07:59:58;;;;;;;6.43;2.00;;;;;;;;;;5074890;28;20230;-69
2022/10/27 08:02:24;;;;;;;4.97;2.17;;;;;;;;;;5075096;28;20258;-69
2022/10/27 08:04:51;;;;;;;3.60;1.90;;;;;;;;;;5074882;28;20213;-69
2022/10/27 08:07:17;;;;;;;5.27;2.37;;;;;;;;;;5073779;28;20264;-69
2022/10/27 08:09:43;;;;;;;5.13;2.07;;;;;;;;;;5074780;28;20205;-69
2022/10/27 08:12:08;;;;;;;4.07;2.70;;;;;;;;;;5075276;28;20174;-70
2022/10/27 08:14:34;;;;;;;3.27;2.40;;;;;;;;;;5073282;28;20204;-69
2022/10/27 08:17:00;;;;;;;5.73;2.03;;;;;;;;;;5074769;28;20178;-70
2022/10/27 08:19:26;;;;;;;1.93;1.73;;;;;;;;;;5074464;28;20194;-70
2022/10/27 08:21:52;;;;;;;3.53;1.90;;;;;;;;;;5073196;28;20182;-70
2022/10/27 08:24:18;;;;;;;2.87;1.70;;;;;;;;;;5073284;28;20670;-70
2022/10/27 08:26:44;;;;;;;4.50;2.23;;;;;;;;;;5073442;28;20174;-69
2022/10/27 08:29:10;;;;;;;6.50;4.20;;;;;;;;;;5078168;28;20270;-69
2022/10/27 08:31:36;;;;;;;3.53;2.23;;;;;;;;;;5081843;28;20173;-69
2022/10/27 08:34:02;;;;;;;6.70;1.70;;;;;;;;;;5083525;28;20208;-69
2022/10/27 08:36:28;;;;;;;6.67;2.17;;;;;;;;;;5085897;28;20174;-69
2022/10/27 08:38:54;;;;;;;3.50;1.70;;;;;;;;;;5078512;28;20265;-69
2022/10/27 08:41:25;;;;;;;3.30;1.90;;;;;;;;;;5075445;28;20201;-69
2022/10/27 08:43:53;;;;;;;2.63;1.63;;;;;;;;;;5074523;28;20190;-69
2022/10/27 08:46:25;;;;;;;4.90;1.87;;;;;;;;;;5074658;28;20220;-69
2022/10/27 08:48:53;;;;;;;6.53;3.33;;;;;;;;;;5074542;28;20254;-69
2022/10/27 08:51:21;;;;;;;4.90;1.90;;;;;;;;;;5072991;28;20192;-69
2022/10/27 08:53:49;;;;;;;3.67;1.80;;;;;;;;;;5074364;28;20206;-69
2022/10/27 08:56:16;;;;;;;1.93;1.70;;;;;;;;;;5072944;28;20208;-69
2022/10/27 08:58:43;;;;;;;4.87;1.77;;;;;;;;;;5072673;28;20193;-69
2022/10/27 09:01:09;;;;;;;4.27;1.80;;;;;;;;;;5073702;28;20208;-70
2022/10/27 09:03:48;;;;;;;6.03;1.80;;;;;;;;;;5073582;28;20213;-69
2022/10/27 09:06:15;;;;;;;7.87;2.00;;;;;;;;;;5072128;28;20207;-70
2022/10/27 09:08:46;;;;;;;6.33;2.00;;;;;;;;;;5072466;28;20230;-68
2022/10/27 09:11:36;;;;;;;4.70;2.10;;;;;;;;;;5074005;28;20162;-69
2022/10/27 09:14:11;;;;;;;2.13;1.63;;;;;;;;;;5073656;28;20197;-69
2022/10/27 09:16:55;;;;;;;13.57;2.03;;;;;;;;;;5072446;28;20615;-69
2022/10/27 09:19:41;;;;;;;4.70;1.90;;;;;;;;;;5073896;28;20330;-70
2022/10/27 09:22:11;;;;;;;3.63;1.57;;;;;;;;;;5073355;28;20198;-69
2022/10/27 09:24:37;;;;;;;3.07;1.83;;;;;;;;;;5072504;28;20195;-69
2022/10/27 09:27:04;;;;;;;5.40;2.07;;;;;;;;;;5073799;28;20170;-68
2022/10/27 09:29:31;;;;;;;4.80;2.00;;;;;;;;;;5072374;28;20173;-69
2022/10/27 09:32:00;;;;;;;2.93;1.87;;;;;;;;;;5073771;28;20227;-69
2022/10/27 09:34:44;;;;;;;8.23;1.73;;;;;;;;;;5071966;28;20205;-69
2022/10/27 09:37:14;;;;;;;4.37;2.00;;;;;;;;;;5073537;28;20284;-72
2022/10/27 09:39:46;;;;;;;2.77;1.70;;;;;;;;;;5074422;28;20201;-69
2022/10/27 09:42:12;;;;;;;7.27;2.13;;;;;;;;;;5072516;28;20698;-70
2022/10/27 09:44:38;;;;;;;12.80;1.67;;;;;;;;;;5072343;28;20194;-69
2022/10/27 09:47:04;;;;;;;5.43;1.93;;;;;;;;;;5072188;28;20174;-69
2022/10/27 09:49:34;;;;;;;3.67;1.73;;;;;;;;;;5073686;28;20177;-68
2022/10/27 09:52:06;;;;;;;6.20;1.80;;;;;;;;;;5071918;28;20535;-69
2022/10/27 09:54:33;;;;;;;5.70;2.10;;;;;;;;;;5073399;28;20198;-68
2022/10/27 09:57:03;;;;;;;3.90;1.50;;;;;;;;;;5073774;28;20529;-69
2022/10/27 09:59:29;;;;;;;3.67;1.73;;;;;;;;;;5072082;28;20270;-69
2022/10/27 10:01:58;;;;;;;4.47;1.93;;;;;;;;;;5073591;28;20178;-68
2022/10/27 10:04:50;;;;;;;4.60;1.93;;;;;;;;;;5073176;28;20209;-69
2022/10/27 10:07:31;;;;;;;3.87;1.83;;;;;;;;;;5068190;28;20186;-69
2022/10/27 10:10:17;;;;;;;3.83;1.50;;;;;;;;;;5072075;28;20182;-69
2022/10/27 10:12:43;;;;;;;3.60;2.00;;;;;;;;;;5071834;28;20177;-68
2022/10/27 10:15:09;;;;;;;4.73;1.90;;;;;;;;;;5073048;28;20188;-69
2022/10/27 10:17:36;;;;;;;3.40;2.00;;;;;;;;;;5071802;28;20267;-68
2022/10/27 10:20:02;;;;;;;4.60;1.80;;;;;;;;;;5076641;28;20198;-68
2022/10/27 10:22:32;;;;;;;3.10;1.57;;;;;;;;;;5075872;28;20178;-69
2022/10/27 10:25:14;;;;;;;4.90;1.63;;;;;;;;;;5076968;28;20194;-69
2022/10/27 10:27:55;;;;;;;10.90;2.67;;;;;;;;;;5075698;28;20169;-69
2022/10/27 10:30:21;;;;;;;6.17;1.90;;;;;;;;;;5075564;28;20176;-69
2022/10/27 10:32:48;;;;;;;6.07;2.20;;;;;;;;;;5077373;28;20253;-68
2022/10/27 10:35:37;;;;;;;6.93;2.27;;;;;;;;;;5077046;28;20656;-69
2022/10/27 10:38:19;;;;;;;3.50;1.97;;;;;;;;;;5068688;28;20230;-69
2022/10/27 10:40:55;;;;;;;4.77;1.80;;;;;;;;;;5076929;28;20190;-69
2022/10/27 10:43:21;;;;;;;6.07;2.13;;;;;;;;;;5076723;28;20190;-68
2022/10/27 10:45:51;;;;;;;3.97;1.90;;;;;;;;;;5077035;28;20257;-69
2022/10/27 10:48:17;;;;;;;4.27;2.17;;;;;;;;;;5075309;28;20181;-69
2022/10/27 10:50:46;;;;;;;4.13;1.97;;;;;;;;;;5076493;28;20178;-68
2022/10/27 10:53:29;;;;;;;4.00;2.00;;;;;;;;;;5075138;28;20202;-68
2022/10/27 10:55:56;;;;;;;4.43;1.90;;;;;;;;;;5076521;28;20212;-68
2022/10/27 10:58:24;;;;;;;6.07;1.70;;;;;;;;;;5075328;28;20186;-71
2022/10/27 11:00:55;;;;;;;6.00;1.83;;;;;;;;;;5076643;28;20209;-70
2022/10/27 11:03:22;;;;;;;3.30;1.93;;;;;;;;;;5074925;28;20681;-69
2022/10/27 11:05:53;;;;;;;4.53;2.30;;;;;;;;;;5076123;28;20200;-69
2022/10/27 11:08:21;;;;;;;6.77;2.40;;;;;;;;;;5075391;28;20182;-68
2022/10/27 11:10:47;;;;;;;7.93;1.93;;;;;;;;;;5075194;28;20528;-70
2022/10/27 11:13:16;;;;;;;7.30;2.13;;;;;;;;;;5074824;28;20220;-69
2022/10/27 11:15:48;;;;;;;5.77;2.10;;;;;;;;;;5074936;28;20209;-66
2022/10/27 11:18:20;;;;;;;8.10;2.20;;;;;;;;;;5076345;28;20186;-69
2022/10/27 11:20:48;;;;;;;3.93;2.20;;;;;;;;;;5074988;28;20670;-68
2022/10/27 11:23:16;;;;;;;7.37;2.50;;;;;;;;;;5075941;28;20198;-69
2022/10/27 11:25:43;;;;;;;4.43;1.87;;;;;;;;;;5074846;28;20542;-69
2022/10/27 11:28:15;;;;;;;9.20;2.00;;;;;;;;;;5074815;28;20420;-67
2022/10/27 11:31:00;;;;;;;7.67;2.77;;;;;;;;;;5076091;28;20253;-67
2022/10/27 11:33:38;;;;;;;3.63;2.40;;;;;;;;;;5076634;28;20677;-68
2022/10/27 11:36:15;;;;;;;4.50;2.27;;;;;;;;;;5075050;28;20181;-68
2022/10/27 11:38:49;;;;;;;4.87;2.10;;;;;;;;;;5076420;28;20177;-66
2022/10/27 11:41:19;;;;;;;5.63;2.13;;;;;;;;;;5074957;28;20273;-70
2022/10/27 11:43:54;;;;;;;6.70;2.80;;;;;;;;;;5075575;28;20339;-70
2022/10/27 11:46:23;;;;;;;6.40;2.67;;;;;;;;;;5074255;28;20170;-69
2022/10/27 11:48:53;;;;;;;6.03;2.50;;;;;;;;;;5075560;28;20539;-67
2022/10/27 11:51:22;;;;;;;4.00;1.87;;;;;;;;;;5075374;28;20546;-67
2022/10/27 11:53:50;;;;;;;4.63;2.27;;;;;;;;;;5075129;28;20564;-67
2022/10/27 11:56:34;;;;;;;9.10;2.30;;;;;;;;;;5075179;28;20181;-67
2022/10/27 11:59:18;;;;;;;5.87;2.10;;;;;;;;;;5073749;28;20190;-67
2022/10/27 12:01:44;;;;;;;9.73;2.73;;;;;;;;;;5075603;28;20162;-70
2022/10/27 12:04:24;;;;;;;4.00;2.23;;;;;;;;;;5073461;28;20221;-69
2022/10/27 12:06:50;;;;;;;7.13;2.43;;;;;;;;;;5074038;28;20178;-68
2022/10/27 12:09:35;;;;;;;4.83;2.23;;;;;;;;;;5074261;28;20189;-69
2022/10/27 12:12:12;;;;;;;6.37;2.57;;;;;;;;;;5073630;28;20177;-67
2022/10/27 12:14:48;;;;;;;6.77;3.10;;;;;;;;;;5073491;28;20232;-68
2022/10/27 12:17:34;;;;;;;5.87;2.33;;;;;;;;;;5073574;28;20173;-69
2022/10/27 12:20:01;;;;;;;5.80;2.87;;;;;;;;;;5074580;28;20209;-68
2022/10/27 12:22:35;;;;;;;6.47;2.70;;;;;;;;;;5074681;28;20178;-70
2022/10/27 12:25:15;;;;;;;7.73;2.90;;;;;;;;;;5074981;28;20208;-69
2022/10/27 12:27:43;;;;;;;7.67;2.70;;;;;;;;;;5073297;28;20212;-69
2022/10/27 12:30:14;;;;;;;3.33;2.97;;;;;;;;;;5073401;28;20273;-67
2022/10/27 12:33:01;;;;;;;6.60;2.60;;;;;;;;;;5071871;28;20387;-66
2022/10/27 12:35:34;;;;;;;15.43;2.40;;;;;;;;;;5074284;28;20235;-67
2022/10/27 12:38:00;;;;;;;6.13;2.37;;;;;;;;;;5073771;28;20558;-67
2022/10/27 12:40:26;;;;;;;5.30;2.50;;;;;;;;;;5072839;28;20502;-68
2022/10/27 12:42:55;;;;;;;4.67;2.83;;;;;;;;;;5072648;28;20238;-68
2022/10/27 12:45:47;;;;;;;7.07;2.97;;;;;;;;;;5072938;28;20178;-67
2022/10/27 12:48:23;;;;;;;4.83;2.40;;;;;;;;;;5050907;28;20194;-67
2022/10/27 12:50:49;;;;;;;6.67;2.30;;;;;;;;;;5073926;28;20170;-67
2022/10/27 12:53:21;;;;;;;5.73;2.40;;;;;;;;;;5073452;28;20576;-68
2022/10/27 12:55:55;;;;;;;5.67;2.23;;;;;;;;;;5073777;28;20208;-67
2022/10/27 12:58:26;;;;;;;6.13;2.53;;;;;;;;;;5074741;28;20260;-67
2022/10/27 13:01:05;;;;;;;9.10;2.57;;;;;;;;;;5074529;28;20236;-69
2022/10/27 13:03:46;;;;;;;4.53;2.77;;;;;;;;;;5074793;28;20213;-68
2022/10/27 13:06:21;;;;;;;7.43;2.60;;;;;;;;;;5074611;28;20253;-68
2022/10/27 13:09:02;;;;;;;5.67;2.67;;;;;;;;;;5074769;28;20305;-68
2022/10/27 13:11:33;;;;;;;5.80;2.40;;;;;;;;;;5073163;28;20272;-68
2022/10/27 13:14:05;;;;;;;7.50;3.00;;;;;;;;;;5073366;28;20202;-68
2022/10/27 13:16:40;;;;;;;5.53;2.60;;;;;;;;;;5074434;28;20703;-69
2022/10/27 13:19:20;;;;;;;5.37;2.77;;;;;;;;;;5073307;28;20203;-68
2022/10/27 13:21:55;;;;;;;9.70;3.03;;;;;;;;;;5072488;28;20646;-68
2022/10/27 13:24:36;;;;;;;10.47;3.27;;;;;;;;;;5073207;28;20215;-67
2022/10/27 13:27:14;;;;;;;8.43;2.80;;;;;;;;;;5073633;28;20220;-69
2022/10/27 13:30:01;;;;;;;7.37;3.07;;;;;;;;;;5073533;28;20169;-68
2022/10/27 13:32:28;;;;;;;8.03;3.13;;;;;;;;;;5072060;28;20182;-68
2022/10/27 13:35:00;;;;;;;6.67;2.73;;;;;;;;;;5074786;28;20201;-68
2022/10/27 13:37:48;;;;;;;7.60;2.60;;;;;;;;;;5072107;28;20604;-68
2022/10/27 13:40:20;;;;;;;6.37;3.10;;;;;;;;;;5071935;28;20213;-67
2022/10/27 13:42:50;;;;;;;4.63;2.70;;;;;;;;;;5072215;28;20224;-68
2022/10/27 13:45:36;;;;;;;10.67;3.20;;;;;;;;;;5073933;28;20208;-68
2022/10/27 13:48:09;;;;;;;7.03;2.83;;;;;;;;;;5074200;28;20170;-66
2022/10/27 13:50:36;;;;;;;3.67;2.50;;;;;;;;;;5072655;28;20186;-68
2022/10/27 13:53:14;;;;;;;6.63;3.03;;;;;;;;;;5074511;28;20209;-68
2022/10/27 13:55:47;;;;;;;6.33;3.20;;;;;;;;;;5076236;28;20220;-68
2022/10/27 13:58:22;;;;;;;12.67;3.50;;;;;;;;;;5077442;28;20185;-68
2022/10/27 14:01:03;;;;;;;13.47;3.20;;;;;;;;;;5077637;28;20200;-68
2022/10/27 14:03:40;;;;;;;9.40;2.80;;;;;;;;;;5077216;28;20209;-68
2022/10/27 14:06:08;;;;;;;19.27;3.27;;;;;;;;;;5077088;28;20177;-67
2022/10/27 14:08:44;;;;;;;7.23;2.83;;;;;;;;;;5075886;28;20178;-68
2022/10/27 14:11:12;;;;;;;7.70;2.83;;;;;;;;;;5076867;28;20263;-68
2022/10/27 14:13:40;;;;;;;8.33;2.80;;;;;;;;;;5076746;28;20205;-68
2022/10/27 14:16:07;;;;;;;6.30;2.73;;;;;;;;;;5076844;28;20182;-68
2022/10/27 14:18:37;;;;;;;9.30;2.80;;;;;;;;;;5076708;28;20178;-68
2022/10/27 14:21:12;;;;;;;10.23;3.67;;;;;;;;;;5075464;28;20206;-68
2022/10/27 14:23:38;;;;;;;11.93;3.27;;;;;;;;;;5076567;28;20250;-68
2022/10/27 14:26:28;;;;;;;12.43;2.97;;;;;;;;;;5076902;28;20536;-67
2022/10/27 14:28:54;;;;;;;7.03;2.97;;;;;;;;;;5076639;28;20219;-67
2022/10/27 14:31:22;;;;;;;13.47;3.20;;;;;;;;;;5075482;28;20189;-68
2022/10/27 14:33:49;;;;;;;6.27;2.97;;;;;;;;;;5083093;28;20208;-67
2022/10/27 14:36:19;;;;;;;6.97;3.10;;;;;;;;;;5084373;28;20185;-68
2022/10/27 14:38:49;;;;;;;9.50;3.30;;;;;;;;;;5081691;28;20187;-67
2022/10/27 14:41:19;;;;;;;5.43;2.77;;;;;;;;;;5079698;28;20209;-68
2022/10/27 14:43:52;;;;;;;10.43;3.70;;;;;;;;;;5076176;28;20555;-68
2022/10/27 14:46:20;;;;;;;10.87;3.50;;;;;;;;;;5076563;28;20200;-67
2022/10/27 14:48:51;;;;;;;7.63;3.73;;;;;;;;;;5076194;28;20658;-67
2022/10/27 14:51:18;;;;;;;19.27;4.10;;;;;;;;;;5076080;28;20170;-68
2022/10/27 14:53:47;;;;;;;7.47;3.50;;;;;;;;;;5076224;28;20194;-68